sensor_id;sensor_type;location;lat;lon;timestamp;pressure;altitude;pressure_sealevel;temperature;humidity
11349;BME280;5729;43.570;27.826;2023-05-25T00:00:11;98991.41;;;15.50;100.00
11349;BME280;5729;43.570;27.826;2023-05-25T00:02:38;98978.25;;;15.45;100.00
11349;BME280;5729;43.570;27.826;2023-05-25T00:05:04;98972.38;;;15.46;100.00
11349;BME280;5729;43.570;27.826;2023-05-25T00:07:30;98972.38;;;15.46;100.00
11349;BME280;5729;43.570;27.826;2023-05-25T00:09:55;98977.03;;;15.49;100.00
11349;BME280;5729;43.570;27.826;2023-05-25T00:12:21;98979.00;;;15.52;100.00
11349;BME280;5729;43.570;27.826;2023-05-25T00:14:46;98978.25;;;15.45;100.00
11349;BME280;5729;43.570;27.826;2023-05-25T00:17:12;98983.28;;;15.43;100.00
11349;BME280;5729;43.570;27.826;2023-05-25T00:19:38;98981.34;;;15.43;100.00
11349;BME280;5729;43.570;27.826;2023-05-25T00:22:09;98980.16;;;15.41;100.00
11349;BME280;5729;43.570;27.826;2023-05-25T00:24:34;98981.34;;;15.43;100.00
11349;BME280;5729;43.570;27.826;2023-05-25T00:27:00;98979.78;;;15.46;100.00
11349;BME280;5729;43.570;27.826;2023-05-25T00:29:26;98980.56;;;15.43;100.00
11349;BME280;5729;43.570;27.826;2023-05-25T00:31:52;98980.94;;;15.41;100.00
11349;BME280;5729;43.570;27.826;2023-05-25T00:34:18;98974.34;;;15.35;100.00
11349;BME280;5729;43.570;27.826;2023-05-25T00:36:43;98981.34;;;15.40;100.00
11349;BME280;5729;43.570;27.826;2023-05-25T00:39:15;98984.81;;;15.40;100.00
11349;BME280;5729;43.570;27.826;2023-05-25T00:41:45;98983.28;;;15.36;100.00
11349;BME280;5729;43.570;27.826;2023-05-25T00:44:11;98976.69;;;15.37;100.00
11349;BME280;5729;43.570;27.826;2023-05-25T00:46:47;98987.16;;;15.27;100.00
11349;BME280;5729;43.570;27.826;2023-05-25T00:49:14;98985.63;;;15.19;100.00
11349;BME280;5729;43.570;27.826;2023-05-25T00:51:41;98990.69;;;15.21;100.00
11349;BME280;5729;43.570;27.826;2023-05-25T00:54:06;98986.41;;;15.13;100.00
11349;BME280;5729;43.570;27.826;2023-05-25T00:56:35;98997.66;;;15.18;100.00
11349;BME280;5729;43.570;27.826;2023-05-25T00:59:05;98996.50;;;15.19;100.00
11349;BME280;5729;43.570;27.826;2023-05-25T01:01:34;98989.88;;;15.13;100.00
11349;BME280;5729;43.570;27.826;2023-05-25T01:04:05;98991.03;;;15.12;100.00
11349;BME280;5729;43.570;27.826;2023-05-25T01:06:32;98987.56;;;15.15;100.00
11349;BME280;5729;43.570;27.826;2023-05-25T01:09:02;98989.53;;;15.11;100.00
11349;BME280;5729;43.570;27.826;2023-05-25T01:11:35;98987.97;;;15.10;100.00
11349;BME280;5729;43.570;27.826;2023-05-25T01:14:01;98977.50;;;15.09;100.00
11349;BME280;5729;43.570;27.826;2023-05-25T01:16:27;98967.81;;;14.97;100.00
11349;BME280;5729;43.570;27.826;2023-05-25T01:18:53;98968.19;;;14.99;100.00
11349;BME280;5729;43.570;27.826;2023-05-25T01:26:45;98975.94;;;14.97;100.00
11349;BME280;5729;43.570;27.826;2023-05-25T01:29:12;98981.38;;;14.97;100.00
11349;BME280;5729;43.570;27.826;2023-05-25T01:31:38;98975.94;;;14.94;100.00
11349;BME280;5729;43.570;27.826;2023-05-25T01:34:04;98975.94;;;14.94;100.00
11349;BME280;5729;43.570;27.826;2023-05-25T01:36:30;98969.75;;;14.86;100.00
11349;BME280;5729;43.570;27.826;2023-05-25T01:38:57;98968.16;;;14.81;100.00
11349;BME280;5729;43.570;27.826;2023-05-25T01:41:23;98965.84;;;14.80;100.00
11349;BME280;5729;43.570;27.826;2023-05-25T01:43:49;98967.00;;;14.79;100.00
11349;BME280;5729;43.570;27.826;2023-05-25T01:46:31;98972.06;;;14.77;100.00
11349;BME280;5729;43.570;27.826;2023-05-25T01:49:30;98974.38;;;14.75;100.00
11349;BME280;5729;43.570;27.826;2023-05-25T01:52:14;98966.63;;;14.73;100.00
11349;BME280;5729;43.570;27.826;2023-05-25T01:55:10;98969.31;;;14.70;100.00
11349;BME280;5729;43.570;27.826;2023-05-25T01:57:39;98972.41;;;14.68;100.00
11349;BME280;5729;43.570;27.826;2023-05-25T02:00:11;98970.13;;;14.67;100.00
11349;BME280;5729;43.570;27.826;2023-05-25T02:02:37;98976.31;;;14.64;100.00
11349;BME280;5729;43.570;27.826;2023-05-25T02:05:05;98981.34;;;14.65;100.00
11349;BME280;5729;43.570;27.826;2023-05-25T02:07:32;98982.50;;;14.64;100.00
11349;BME280;5729;43.570;27.826;2023-05-25T02:09:58;98982.50;;;14.64;100.00
11349;BME280;5729;43.570;27.826;2023-05-25T02:12:23;98976.31;;;14.64;100.00
11349;BME280;5729;43.570;27.826;2023-05-25T02:14:49;98983.66;;;14.63;100.00
11349;BME280;5729;43.570;27.826;2023-05-25T02:17:15;98983.28;;;14.61;100.00
11349;BME280;5729;43.570;27.826;2023-05-25T02:19:42;98974.75;;;14.56;100.00
11349;BME280;5729;43.570;27.826;2023-05-25T02:22:08;98986.75;;;14.62;100.00
11349;BME280;5729;43.570;27.826;2023-05-25T02:24:33;98981.34;;;14.62;100.00
11349;BME280;5729;43.570;27.826;2023-05-25T02:26:59;98992.19;;;14.65;100.00
11349;BME280;5729;43.570;27.826;2023-05-25T02:29:26;98986.41;;;14.67;100.00
11349;BME280;5729;43.570;27.826;2023-05-25T02:31:51;98979.41;;;14.62;100.00
11349;BME280;5729;43.570;27.826;2023-05-25T02:34:17;98981.72;;;14.64;100.00
11349;BME280;5729;43.570;27.826;2023-05-25T02:36:42;98997.59;;;14.69;100.00
11349;BME280;5729;43.570;27.826;2023-05-25T02:39:10;98991.03;;;14.70;100.00
11349;BME280;5729;43.570;27.826;2023-05-25T02:41:36;99001.50;;;14.75;100.00
11349;BME280;5729;43.570;27.826;2023-05-25T02:44:01;99004.63;;;14.77;100.00
11349;BME280;5729;43.570;27.826;2023-05-25T02:46:27;99012.38;;;14.78;100.00
11349;BME280;5729;43.570;27.826;2023-05-25T02:48:52;99004.22;;;14.82;100.00
11349;BME280;5729;43.570;27.826;2023-05-25T02:51:18;99011.59;;;14.85;100.00
11349;BME280;5729;43.570;27.826;2023-05-25T02:53:43;99010.84;;;14.88;100.00
11349;BME280;5729;43.570;27.826;2023-05-25T02:56:09;99011.97;;;14.90;100.00
11349;BME280;5729;43.570;27.826;2023-05-25T02:58:35;99010.81;;;14.95;100.00
11349;BME280;5729;43.570;27.826;2023-05-25T03:01:01;99017.03;;;14.99;100.00
11349;BME280;5729;43.570;27.826;2023-05-25T03:03:29;99020.91;;;15.02;100.00
11349;BME280;5729;43.570;27.826;2023-05-25T03:05:55;99010.47;;;15.00;100.00
11349;BME280;5729;43.570;27.826;2023-05-25T03:08:21;99012.75;;;15.05;100.00
11349;BME280;5729;43.570;27.826;2023-05-25T03:10:46;99019.38;;;15.11;100.00
11349;BME280;5729;43.570;27.826;2023-05-25T03:13:12;99020.16;;;15.12;100.00
11349;BME280;5729;43.570;27.826;2023-05-25T03:15:37;99024.41;;;15.13;100.00
11349;BME280;5729;43.570;27.826;2023-05-25T03:18:05;99027.13;;;15.09;100.00
11349;BME280;5729;43.570;27.826;2023-05-25T03:20:30;99027.13;;;15.09;100.00
11349;BME280;5729;43.570;27.826;2023-05-25T03:22:57;99036.06;;;15.10;100.00
11349;BME280;5729;43.570;27.826;2023-05-25T03:25:22;99029.03;;;15.12;100.00
11349;BME280;5729;43.570;27.826;2023-05-25T03:27:51;99016.25;;;15.06;100.00
11349;BME280;5729;43.570;27.826;2023-05-25T03:30:17;99034.88;;;15.14;100.00
11349;BME280;5729;43.570;27.826;2023-05-25T03:32:42;99032.16;;;15.14;100.00
11349;BME280;5729;43.570;27.826;2023-05-25T03:35:08;99034.09;;;15.14;100.00
11349;BME280;5729;43.570;27.826;2023-05-25T03:37:33;99032.56;;;15.16;100.00
11349;BME280;5729;43.570;27.826;2023-05-25T03:39:59;99033.31;;;15.17;100.00
11349;BME280;5729;43.570;27.826;2023-05-25T03:42:24;99030.22;;;15.18;100.00
11349;BME280;5729;43.570;27.826;2023-05-25T03:44:49;99034.88;;;15.21;100.00
11349;BME280;5729;43.570;27.826;2023-05-25T03:47:15;99033.31;;;15.24;100.00
11349;BME280;5729;43.570;27.826;2023-05-25T03:49:40;99039.53;;;15.28;100.00
11349;BME280;5729;43.570;27.826;2023-05-25T03:52:06;99036.44;;;15.30;100.00
11349;BME280;5729;43.570;27.826;2023-05-25T03:54:32;99038.34;;;15.36;100.00
11349;BME280;5729;43.570;27.826;2023-05-25T03:56:58;99030.59;;;15.38;100.00
11349;BME280;5729;43.570;27.826;2023-05-25T03:59:24;99041.47;;;15.45;100.00
11349;BME280;5729;43.570;27.826;2023-05-25T04:01:50;99037.19;;;15.48;100.00
11349;BME280;5729;43.570;27.826;2023-05-25T04:04:15;99031.00;;;15.44;100.00
11349;BME280;5729;43.570;27.826;2023-05-25T04:06:42;99036.41;;;15.37;100.00
11349;BME280;5729;43.570;27.826;2023-05-25T04:09:10;99034.50;;;15.30;100.00
11349;BME280;5729;43.570;27.826;2023-05-25T04:11:36;99040.31;;;15.32;100.00
11349;BME280;5729;43.570;27.826;2023-05-25T04:14:01;99039.16;;;15.33;100.00
11349;BME280;5729;43.570;27.826;2023-05-25T04:16:27;99043.00;;;15.36;100.00
11349;BME280;5729;43.570;27.826;2023-05-25T04:18:53;99042.25;;;15.42;100.00
11349;BME280;5729;43.570;27.826;2023-05-25T04:21:18;99042.22;;;15.49;100.00
11349;BME280;5729;43.570;27.826;2023-05-25T04:23:44;99046.53;;;15.57;100.00
11349;BME280;5729;43.570;27.826;2023-05-25T04:26:09;99046.91;;;15.63;100.00
11349;BME280;5729;43.570;27.826;2023-05-25T04:28:35;99052.72;;;15.69;100.00
11349;BME280;5729;43.570;27.826;2023-05-25T04:31:07;99051.94;;;15.72;100.00
11349;BME280;5729;43.570;27.826;2023-05-25T04:33:33;99061.63;;;15.83;100.00
11349;BME280;5729;43.570;27.826;2023-05-25T04:36:05;99061.22;;;15.92;100.00
11349;BME280;5729;43.570;27.826;2023-05-25T04:38:31;99058.09;;;16.01;100.00
11349;BME280;5729;43.570;27.826;2023-05-25T04:40:58;99059.63;;;16.12;100.00
11349;BME280;5729;43.570;27.826;2023-05-25T04:43:26;99063.44;;;16.25;100.00
11349;BME280;5729;43.570;27.826;2023-05-25T04:45:51;99066.50;;;16.38;100.00
11349;BME280;5729;43.570;27.826;2023-05-25T04:48:18;99054.06;;;16.44;100.00
11349;BME280;5729;43.570;27.826;2023-05-25T04:50:45;99064.88;;;16.58;100.00
11349;BME280;5729;43.570;27.826;2023-05-25T04:53:11;99057.06;;;16.67;100.00
11349;BME280;5729;43.570;27.826;2023-05-25T04:55:36;99061.28;;;16.76;100.00
11349;BME280;5729;43.570;27.826;2023-05-25T04:58:02;99061.22;;;16.86;100.00
11349;BME280;5729;43.570;27.826;2023-05-25T05:00:30;99075.94;;;16.96;100.00
11349;BME280;5729;43.570;27.826;2023-05-25T05:02:56;99070.47;;;17.03;100.00
11349;BME280;5729;43.570;27.826;2023-05-25T05:05:22;99080.13;;;17.15;100.00
11349;BME280;5729;43.570;27.826;2023-05-25T05:07:48;99066.84;;;17.20;100.00
11349;BME280;5729;43.570;27.826;2023-05-25T05:10:13;99079.97;;;17.32;100.00
11349;BME280;5729;43.570;27.826;2023-05-25T05:12:39;99066.72;;;17.38;100.00
11349;BME280;5729;43.570;27.826;2023-05-25T05:15:05;99073.59;;;17.50;100.00
11349;BME280;5729;43.570;27.826;2023-05-25T05:17:31;99084.00;;;17.62;100.00
11349;BME280;5729;43.570;27.826;2023-05-25T05:19:56;99083.16;;;17.72;100.00
11349;BME280;5729;43.570;27.826;2023-05-25T05:22:22;99085.44;;;17.81;100.00
11349;BME280;5729;43.570;27.826;2023-05-25T05:24:47;99074.13;;;17.82;100.00
11349;BME280;5729;43.570;27.826;2023-05-25T05:27:14;99081.03;;;17.94;100.00
11349;BME280;5729;43.570;27.826;2023-05-25T05:29:40;99076.22;;;18.05;100.00
11349;BME280;5729;43.570;27.826;2023-05-25T05:32:06;99083.94;;;18.10;100.00
11349;BME280;5729;43.570;27.826;2023-05-25T05:34:32;99086.16;;;18.22;100.00
11349;BME280;5729;43.570;27.826;2023-05-25T05:36:57;99084.47;;;18.32;100.00
11349;BME280;5729;43.570;27.826;2023-05-25T05:39:24;99082.00;;;18.44;100.00
11349;BME280;5729;43.570;27.826;2023-05-25T05:41:50;99085.38;;;18.56;100.00
11349;BME280;5729;43.570;27.826;2023-05-25T05:44:15;99090.28;;;18.71;100.00
11349;BME280;5729;43.570;27.826;2023-05-25T05:46:41;99101.47;;;18.80;100.00
11349;BME280;5729;43.570;27.826;2023-05-25T05:49:06;99094.25;;;18.94;100.00
11349;BME280;5729;43.570;27.826;2023-05-25T05:51:32;99093.69;;;19.06;100.00
11349;BME280;5729;43.570;27.826;2023-05-25T05:53:57;99102.13;;;19.15;100.00
11349;BME280;5729;43.570;27.826;2023-05-25T05:56:23;99102.72;;;19.30;100.00
11349;BME280;5729;43.570;27.826;2023-05-25T05:58:48;99105.28;;;19.40;100.00
11349;BME280;5729;43.570;27.826;2023-05-25T06:01:16;99107.31;;;19.60;100.00
11349;BME280;5729;43.570;27.826;2023-05-25T06:03:42;99105.78;;;19.82;100.00
11349;BME280;5729;43.570;27.826;2023-05-25T06:06:08;99102.44;;;19.94;100.00
11349;BME280;5729;43.570;27.826;2023-05-25T06:08:34;99099.34;;;20.12;100.00
11349;BME280;5729;43.570;27.826;2023-05-25T06:10:59;99099.25;;;20.19;100.00
11349;BME280;5729;43.570;27.826;2023-05-25T06:13:25;99097.47;;;20.28;100.00
11349;BME280;5729;43.570;27.826;2023-05-25T06:15:50;99101.25;;;20.35;100.00
11349;BME280;5729;43.570;27.826;2023-05-25T06:18:15;99106.56;;;20.45;100.00
11349;BME280;5729;43.570;27.826;2023-05-25T06:20:41;99105.13;;;20.57;100.00
11349;BME280;5729;43.570;27.826;2023-05-25T06:23:06;99104.91;;;20.67;100.00
11349;BME280;5729;43.570;27.826;2023-05-25T06:25:35;99101.53;;;20.80;100.00
11349;BME280;5729;43.570;27.826;2023-05-25T06:28:01;99105.31;;;20.86;100.00
11349;BME280;5729;43.570;27.826;2023-05-25T06:30:26;99104.31;;;20.96;100.00
11349;BME280;5729;43.570;27.826;2023-05-25T06:32:51;99096.28;;;21.05;100.00
11349;BME280;5729;43.570;27.826;2023-05-25T06:35:17;99103.31;;;21.06;100.00
11349;BME280;5729;43.570;27.826;2023-05-25T06:37:48;99101.88;;;21.18;100.00
11349;BME280;5729;43.570;27.826;2023-05-25T06:40:15;99098.13;;;21.28;100.00
11349;BME280;5729;43.570;27.826;2023-05-25T06:42:41;99103.72;;;21.41;100.00
11349;BME280;5729;43.570;27.826;2023-05-25T06:45:07;99096.66;;;21.56;100.00
11349;BME280;5729;43.570;27.826;2023-05-25T06:47:33;99101.91;;;21.66;100.00
11349;BME280;5729;43.570;27.826;2023-05-25T06:49:58;99100.50;;;21.74;100.00
11349;BME280;5729;43.570;27.826;2023-05-25T06:52:24;99087.47;;;21.79;100.00
11349;BME280;5729;43.570;27.826;2023-05-25T06:54:52;99094.22;;;22.06;100.00
11349;BME280;5729;43.570;27.826;2023-05-25T06:57:18;99096.72;;;22.30;100.00
11349;BME280;5729;43.570;27.826;2023-05-25T06:59:43;99093.56;;;22.44;100.00
11349;BME280;5729;43.570;27.826;2023-05-25T07:02:09;99086.97;;;22.41;100.00
11349;BME280;5729;43.570;27.826;2023-05-25T07:04:34;99087.53;;;22.49;100.00
11349;BME280;5729;43.570;27.826;2023-05-25T07:06:59;99086.03;;;22.61;100.00
11349;BME280;5729;43.570;27.826;2023-05-25T07:09:25;99089.00;;;22.66;100.00
11349;BME280;5729;43.570;27.826;2023-05-25T07:11:50;99090.56;;;22.67;100.00
11349;BME280;5729;43.570;27.826;2023-05-25T07:14:16;99092.31;;;22.74;100.00
11349;BME280;5729;43.570;27.826;2023-05-25T07:16:42;99085.59;;;22.75;100.00
11349;BME280;5729;43.570;27.826;2023-05-25T07:19:09;99093.31;;;22.80;100.00
11349;BME280;5729;43.570;27.826;2023-05-25T07:21:35;99085.41;;;22.95;100.00
11349;BME280;5729;43.570;27.826;2023-05-25T07:24:01;99080.69;;;23.08;100.00
11349;BME280;5729;43.570;27.826;2023-05-25T07:26:27;99083.22;;;23.15;100.00
11349;BME280;5729;43.570;27.826;2023-05-25T07:28:52;99079.34;;;23.25;100.00
11349;BME280;5729;43.570;27.826;2023-05-25T07:31:18;99087.38;;;23.58;100.00
11349;BME280;5729;43.570;27.826;2023-05-25T07:33:43;99078.03;;;23.89;100.00
11349;BME280;5729;43.570;27.826;2023-05-25T07:36:09;99086.91;;;24.28;100.00
11349;BME280;5729;43.570;27.826;2023-05-25T07:38:35;99082.16;;;24.50;100.00
11349;BME280;5729;43.570;27.826;2023-05-25T07:41:01;99080.47;;;24.75;100.00
11349;BME280;5729;43.570;27.826;2023-05-25T07:43:26;99078.59;;;24.93;100.00
11349;BME280;5729;43.570;27.826;2023-05-25T07:45:52;99088.19;;;25.29;100.00
11349;BME280;5729;43.570;27.826;2023-05-25T07:48:18;99081.72;;;25.63;100.00
11349;BME280;5729;43.570;27.826;2023-05-25T07:50:44;99083.59;;;26.02;100.00
11349;BME280;5729;43.570;27.826;2023-05-25T07:53:09;99074.34;;;26.24;100.00
11349;BME280;5729;43.570;27.826;2023-05-25T07:55:35;99071.91;;;26.35;100.00
11349;BME280;5729;43.570;27.826;2023-05-25T07:58:00;99075.88;;;26.52;100.00
11349;BME280;5729;43.570;27.826;2023-05-25T08:00:26;99070.91;;;26.65;100.00
11349;BME280;5729;43.570;27.826;2023-05-25T08:02:51;99071.31;;;27.24;100.00
11349;BME280;5729;43.570;27.826;2023-05-25T08:05:17;99068.41;;;29.57;87.20
11349;BME280;5729;43.570;27.826;2023-05-25T08:07:43;99061.53;;;33.38;59.28
11349;BME280;5729;43.570;27.826;2023-05-25T08:10:09;99060.22;;;35.77;43.49
11349;BME280;5729;43.570;27.826;2023-05-25T08:12:35;99056.19;;;38.05;37.24
11349;BME280;5729;43.570;27.826;2023-05-25T08:15:01;99060.19;;;40.37;33.25
11349;BME280;5729;43.570;27.826;2023-05-25T08:17:26;99051.78;;;42.33;29.31
11349;BME280;5729;43.570;27.826;2023-05-25T08:19:53;99047.25;;;44.55;29.28
11349;BME280;5729;43.570;27.826;2023-05-25T08:22:18;99052.22;;;46.18;24.38
11349;BME280;5729;43.570;27.826;2023-05-25T08:24:44;99057.25;;;47.01;24.50
11349;BME280;5729;43.570;27.826;2023-05-25T08:27:09;99055.63;;;46.67;23.18
11349;BME280;5729;43.570;27.826;2023-05-25T08:29:35;99048.00;;;44.55;23.94
11349;BME280;5729;43.570;27.826;2023-05-25T08:32:00;99047.63;;;44.88;24.41
11349;BME280;5729;43.570;27.826;2023-05-25T08:34:26;99038.69;;;45.01;22.78
11349;BME280;5729;43.570;27.826;2023-05-25T08:36:52;99029.63;;;46.41;21.63
11349;BME280;5729;43.570;27.826;2023-05-25T08:39:18;99028.94;;;47.80;22.05
11349;BME280;5729;43.570;27.826;2023-05-25T08:41:44;99023.28;;;48.27;20.35
11349;BME280;5729;43.570;27.826;2023-05-25T08:44:10;99023.38;;;49.24;19.99
11349;BME280;5729;43.570;27.826;2023-05-25T08:46:46;99019.34;;;46.57;20.97
11349;BME280;5729;43.570;27.826;2023-05-25T08:49:13;99017.06;;;43.00;23.64
11349;BME280;5729;43.570;27.826;2023-05-25T08:51:57;99025.84;;;39.95;26.68
11349;BME280;5729;43.570;27.826;2023-05-25T08:54:33;99015.97;;;36.84;30.01
11349;BME280;5729;43.570;27.826;2023-05-25T08:57:37;99023.91;;;35.84;31.82
11349;BME280;5729;43.570;27.826;2023-05-25T09:00:08;99025.59;;;38.36;29.92
11349;BME280;5729;43.570;27.826;2023-05-25T09:05:08;98999.94;;;46.04;23.44
11349;BME280;5729;43.570;27.826;2023-05-25T09:07:33;98999.50;;;48.83;20.82
11349;BME280;5729;43.570;27.826;2023-05-25T09:10:00;99008.06;;;49.96;20.61
11349;BME280;5729;43.570;27.826;2023-05-25T09:12:30;99001.38;;;51.01;18.05
11349;BME280;5729;43.570;27.826;2023-05-25T09:14:57;98979.72;;;50.84;17.02
11349;BME280;5729;43.570;27.826;2023-05-25T09:17:23;98986.72;;;50.12;18.66
11349;BME280;5729;43.570;27.826;2023-05-25T09:19:48;98985.72;;;47.86;19.01
11349;BME280;5729;43.570;27.826;2023-05-25T09:22:14;98991.41;;;47.08;19.92
11349;BME280;5729;43.570;27.826;2023-05-25T09:24:40;98990.91;;;44.34;21.22
11349;BME280;5729;43.570;27.826;2023-05-25T09:27:10;98992.59;;;40.85;23.97
11349;BME280;5729;43.570;27.826;2023-05-25T09:29:36;98990.94;;;37.73;26.56
11349;BME280;5729;43.570;27.826;2023-05-25T09:32:05;98983.31;;;36.68;30.23
11349;BME280;5729;43.570;27.826;2023-05-25T09:34:31;98990.16;;;34.25;31.36
11349;BME280;5729;43.570;27.826;2023-05-25T09:37:17;98994.66;;;32.83;34.94
11349;BME280;5729;43.570;27.826;2023-05-25T09:39:45;98987.97;;;31.68;38.72
11349;BME280;5729;43.570;27.826;2023-05-25T09:42:12;99005.41;;;30.15;41.36
11349;BME280;5729;43.570;27.826;2023-05-25T09:44:38;98993.44;;;28.82;52.69
11349;BME280;5729;43.570;27.826;2023-05-25T09:47:04;99001.53;;;28.21;61.15
11349;BME280;5729;43.570;27.826;2023-05-25T09:49:30;98996.38;;;27.37;71.48
11349;BME280;5729;43.570;27.826;2023-05-25T09:51:55;98996.06;;;26.78;82.75
11349;BME280;5729;43.570;27.826;2023-05-25T09:54:21;99011.16;;;25.98;98.48
11349;BME280;5729;43.570;27.826;2023-05-25T09:56:47;99011.31;;;25.58;100.00
11349;BME280;5729;43.570;27.826;2023-05-25T09:59:13;99019.25;;;25.29;100.00
11349;BME280;5729;43.570;27.826;2023-05-25T10:01:39;99024.53;;;24.96;100.00
11349;BME280;5729;43.570;27.826;2023-05-25T10:04:05;99027.66;;;24.76;100.00
11349;BME280;5729;43.570;27.826;2023-05-25T10:06:31;99054.97;;;24.61;100.00
11349;BME280;5729;43.570;27.826;2023-05-25T10:08:57;99069.84;;;24.20;100.00
11349;BME280;5729;43.570;27.826;2023-05-25T10:11:24;99095.22;;;23.34;100.00
11349;BME280;5729;43.570;27.826;2023-05-25T10:13:53;99104.13;;;22.17;100.00
11349;BME280;5729;43.570;27.826;2023-05-25T10:16:23;99118.25;;;21.37;100.00
11349;BME280;5729;43.570;27.826;2023-05-25T10:19:31;99126.41;;;20.69;100.00
11349;BME280;5729;43.570;27.826;2023-05-25T10:22:12;99117.88;;;20.24;100.00
11349;BME280;5729;43.570;27.826;2023-05-25T10:24:44;99143.88;;;19.69;100.00
11349;BME280;5729;43.570;27.826;2023-05-25T10:27:17;99145.75;;;19.49;100.00
11349;BME280;5729;43.570;27.826;2023-05-25T10:29:46;99146.09;;;19.24;100.00
11349;BME280;5729;43.570;27.826;2023-05-25T10:32:12;99151.00;;;18.79;100.00
11349;BME280;5729;43.570;27.826;2023-05-25T10:34:40;99153.84;;;18.34;100.00
11349;BME280;5729;43.570;27.826;2023-05-25T10:37:06;99168.00;;;18.22;100.00
11349;BME280;5729;43.570;27.826;2023-05-25T10:39:35;99161.88;;;18.11;100.00
11349;BME280;5729;43.570;27.826;2023-05-25T10:42:01;99154.69;;;18.28;100.00
11349;BME280;5729;43.570;27.826;2023-05-25T10:44:31;99153.25;;;18.16;100.00
11349;BME280;5729;43.570;27.826;2023-05-25T10:46:59;99144.63;;;18.21;100.00
11349;BME280;5729;43.570;27.826;2023-05-25T10:49:33;99147.97;;;18.36;100.00
11349;BME280;5729;43.570;27.826;2023-05-25T10:52:00;99138.28;;;18.31;100.00
11349;BME280;5729;43.570;27.826;2023-05-25T10:54:29;99142.16;;;18.34;100.00
11349;BME280;5729;43.570;27.826;2023-05-25T10:57:21;99141.38;;;18.33;100.00
11349;BME280;5729;43.570;27.826;2023-05-25T10:59:51;99135.94;;;18.30;100.00
11349;BME280;5729;43.570;27.826;2023-05-25T11:02:19;99137.44;;;18.38;100.00
11349;BME280;5729;43.570;27.826;2023-05-25T11:04:48;99135.88;;;18.37;100.00
11349;BME280;5729;43.570;27.826;2023-05-25T11:07:15;99147.47;;;18.48;100.00
11349;BME280;5729;43.570;27.826;2023-05-25T11:09:44;99132.00;;;18.34;100.00
11349;BME280;5729;43.570;27.826;2023-05-25T11:12:20;99110.47;;;18.06;100.00
11349;BME280;5729;43.570;27.826;2023-05-25T11:15:09;99128.63;;;18.23;100.00
11349;BME280;5729;43.570;27.826;2023-05-25T11:17:58;99125.16;;;18.19;100.00
11349;BME280;5729;43.570;27.826;2023-05-25T11:20:27;99113.06;;;18.20;100.00
11349;BME280;5729;43.570;27.826;2023-05-25T11:22:53;99116.94;;;18.23;100.00
11349;BME280;5729;43.570;27.826;2023-05-25T11:25:44;99121.66;;;18.19;100.00
11349;BME280;5729;43.570;27.826;2023-05-25T11:28:10;99122.75;;;18.25;100.00
11349;BME280;5729;43.570;27.826;2023-05-25T11:30:37;99115.47;;;18.14;100.00
11349;BME280;5729;43.570;27.826;2023-05-25T11:33:03;99103.31;;;18.19;100.00
11349;BME280;5729;43.570;27.826;2023-05-25T11:35:30;99099.09;;;18.14;100.00
11349;BME280;5729;43.570;27.826;2023-05-25T11:37:58;99103.41;;;18.12;100.00
11349;BME280;5729;43.570;27.826;2023-05-25T11:40:28;99097.28;;;18.04;100.00
11349;BME280;5729;43.570;27.826;2023-05-25T11:42:54;99099.50;;;18.13;100.00
11349;BME280;5729;43.570;27.826;2023-05-25T11:45:21;99101.16;;;18.03;100.00
11349;BME280;5729;43.570;27.826;2023-05-25T11:47:47;99080.66;;;17.92;100.00
11349;BME280;5729;43.570;27.826;2023-05-25T11:50:16;99081.41;;;17.92;100.00
11349;BME280;5729;43.570;27.826;2023-05-25T11:52:41;99094.84;;;18.13;100.00
11349;BME280;5729;43.570;27.826;2023-05-25T11:55:11;99098.53;;;18.30;100.00
11349;BME280;5729;43.570;27.826;2023-05-25T11:57:38;99104.03;;;18.27;100.00
11349;BME280;5729;43.570;27.826;2023-05-25T12:00:05;99102.97;;;18.17;100.00
11349;BME280;5729;43.570;27.826;2023-05-25T12:02:36;99113.97;;;18.06;100.00
11349;BME280;5729;43.570;27.826;2023-05-25T12:05:02;99104.41;;;17.91;100.00
11349;BME280;5729;43.570;27.826;2023-05-25T12:07:29;99115.53;;;18.07;100.00
11349;BME280;5729;43.570;27.826;2023-05-25T12:15:23;99186.59;;;18.31;100.00
11349;BME280;5729;43.570;27.826;2023-05-25T12:17:49;99190.63;;;18.19;100.00
11349;BME280;5729;43.570;27.826;2023-05-25T12:20:16;99196.06;;;18.19;100.00
11349;BME280;5729;43.570;27.826;2023-05-25T12:22:43;99194.53;;;18.18;100.00
11349;BME280;5729;43.570;27.826;2023-05-25T12:25:09;99192.22;;;18.17;100.00
11349;BME280;5729;43.570;27.826;2023-05-25T12:27:36;99174.81;;;18.00;100.00
11349;BME280;5729;43.570;27.826;2023-05-25T12:30:03;99180.59;;;18.09;100.00
11349;BME280;5729;43.570;27.826;2023-05-25T12:32:29;99176.66;;;18.13;100.00
11349;BME280;5729;43.570;27.826;2023-05-25T12:35:05;99179.69;;;18.23;100.00
11349;BME280;5729;43.570;27.826;2023-05-25T12:37:31;99186.28;;;18.25;100.00
11349;BME280;5729;43.570;27.826;2023-05-25T12:39:57;99183.59;;;18.22;100.00
11349;BME280;5729;43.570;27.826;2023-05-25T12:42:23;99161.72;;;18.25;100.00
11349;BME280;5729;43.570;27.826;2023-05-25T12:44:55;99155.47;;;18.28;100.00
11349;BME280;5729;43.570;27.826;2023-05-25T12:47:26;99155.03;;;18.30;100.00
11349;BME280;5729;43.570;27.826;2023-05-25T12:50:10;99158.09;;;18.39;100.00
11349;BME280;5729;43.570;27.826;2023-05-25T12:52:43;99153.06;;;18.34;100.00
11349;BME280;5729;43.570;27.826;2023-05-25T12:55:23;99145.44;;;18.52;100.00
11349;BME280;5729;43.570;27.826;2023-05-25T12:58:03;99125.13;;;18.60;100.00
11349;BME280;5729;43.570;27.826;2023-05-25T13:00:34;99134.13;;;18.88;100.00
11349;BME280;5729;43.570;27.826;2023-05-25T13:03:00;99126.56;;;18.99;100.00
11349;BME280;5729;43.570;27.826;2023-05-25T13:05:31;99118.09;;;18.90;100.00